CheckWX is a tool to help pilots better visualize weather data.  It is not intended as a substitute for an official pre-flight weather briefing.

08:06:18 UTC

KDCA TAF
Ronald Reagan Washington National Airport
Washington, Virginia, USA
KDCA 190520Z 1906/2012 VRB04KT P6SM FEW050 FM191400 03005KT P6SM FEW200 FM191800 VRB04KT P6SM SCT200

Mar-19@
06:00 UTC

Mar-19 @ 06:00 UTC

Mar-19@
14:00 UTC

Mar-19 @ 14:00 UTC

KDCA 190520Z 1906/2012 VRB04KT P6SM FEW050
Wind
  • Variable at 4 KTS
Cloud Levels
  • Few at 5,000' AGL

Mar-19@
14:00 UTC

Mar-19 @ 14:00 UTC

Mar-19@
18:00 UTC

Mar-19 @ 18:00 UTC

FM191400 03005KT P6SM FEW200

From

From Standard forecast or significant change

Wind
  • 030° at 5 KTS
Cloud Levels
  • Few at 20,000' AGL

Mar-19@
18:00 UTC

Mar-19 @ 18:00 UTC

Mar-20@
12:00 UTC

Mar-20 @ 12:00 UTC

FM191800 VRB04KT P6SM SCT200

From

From Standard forecast or significant change

Wind
  • Variable at 4 KTS
Cloud Levels
  • Scattered at 20,000' AGL